Time;durP1;ratioP1;P1;durP2;ratioP2;P2;SDS_P1;SDS_P2;PMS_P1;PMS_P2;Temp;Humidity;BMP_temperature;BMP_pressure;BME280_temperature;BME280_humidity;BME280_pressure;Samples;Min_cycle;Max_cycle;Signal;HPM_P1;HPM_P2
2024/02/14 00:00:14;;;;;;;7.07;3.30;;;0.60;99.90;0.10;100927.00;;;;4930665;28;89076;-71
2024/02/14 00:02:44;;;;;;;6.37;3.17;;;0.50;99.90;0.10;100915.00;;;;4931775;28;88326;-71
2024/02/14 00:05:10;;;;;;;3.47;3.17;;;0.50;99.90;0.10;100909.00;;;;4931049;28;89005;-71
2024/02/14 00:07:39;;;;;;;5.77;4.70;;;0.40;99.90;0.00;100920.00;;;;4929480;28;109492;-71
2024/02/14 00:10:05;;;;;;;7.23;3.50;;;0.40;99.90;0.00;100904.00;;;;4925280;28;108780;-71
2024/02/14 00:12:32;;;;;;;3.00;2.77;;;0.40;99.90;0.00;100907.00;;;;4930685;28;109661;-71
2024/02/14 00:14:58;;;;;;;3.57;3.27;;;0.40;99.90;0.00;100908.00;;;;4933480;28;108791;-71
2024/02/14 00:17:25;;;;;;;5.03;3.33;;;0.40;99.90;0.00;100901.00;;;;4926692;28;111047;-72
2024/02/14 00:19:50;;;;;;;3.80;2.83;;;0.40;99.90;0.00;100900.00;;;;4929198;28;87936;-72
2024/02/14 00:22:16;;;;;;;6.33;3.93;;;0.40;99.90;0.10;100913.00;;;;4927647;28;117254;-71
2024/02/14 00:24:42;;;;;;;4.80;3.30;;;0.30;99.90;0.10;100913.00;;;;4926820;28;104387;-71
2024/02/14 00:27:08;;;;;;;7.83;3.83;;;0.50;99.90;0.20;100903.00;;;;4929987;28;87912;-72
2024/02/14 00:29:34;;;;;;;8.30;3.60;;;0.50;99.90;0.20;100905.00;;;;4931118;28;105531;-71
2024/02/14 00:32:01;;;;;;;4.80;3.30;;;0.60;99.90;0.30;100910.00;;;;4929972;28;118722;-71
2024/02/14 00:34:27;;;;;;;3.53;2.80;;;0.70;99.90;0.40;100919.00;;;;4932978;28;88007;-71
2024/02/14 00:36:52;;;;;;;7.53;4.40;;;0.70;99.90;0.50;100917.00;;;;4929195;28;103702;-71
2024/02/14 00:39:18;;;;;;;10.17;4.33;;;0.80;99.90;0.50;100916.00;;;;4932555;28;108716;-71
2024/02/14 00:41:47;;;;;;;4.23;3.00;;;0.80;99.90;0.60;100920.00;;;;4931029;28;87839;-71
2024/02/14 00:44:16;;;;;;;5.10;4.03;;;0.90;99.90;0.70;100910.00;;;;4930029;28;88086;-71
2024/02/14 00:46:45;;;;;;;4.60;4.10;;;0.90;99.90;0.70;100918.00;;;;4929474;28;87992;-71
2024/02/14 00:49:11;;;;;;;6.57;4.17;;;1.10;99.90;0.70;100913.00;;;;4924848;28;88837;-71
2024/02/14 00:51:40;;;;;;;4.23;3.50;;;1.10;99.90;0.80;100919.00;;;;4926422;28;118485;-71
2024/02/14 00:54:07;;;;;;;7.03;3.77;;;1.10;99.90;0.90;100921.00;;;;4929733;28;88798;-71
2024/02/14 00:56:32;;;;;;;5.93;5.00;;;1.20;99.90;1.00;100908.00;;;;4931064;28;88031;-71
2024/02/14 00:58:58;;;;;;;6.67;4.03;;;1.20;99.90;1.00;100919.00;;;;4931945;28;109113;-71
2024/02/14 01:01:25;;;;;;;5.67;3.60;;;1.30;99.90;1.10;100903.00;;;;4929611;28;117662;-71
2024/02/14 01:03:51;;;;;;;5.07;3.13;;;1.40;99.90;1.10;100921.00;;;;4928328;28;88310;-71
2024/02/14 01:06:17;;;;;;;4.67;2.40;;;1.40;99.90;1.20;100912.00;;;;4929916;28;110226;-71
2024/02/14 01:08:43;;;;;;;4.67;3.13;;;2.30;99.90;1.20;100917.00;;;;4929708;28;88023;-71
2024/02/14 01:11:09;;;;;;;6.10;3.80;;;1.50;99.90;1.20;100922.00;;;;4933146;28;96870;-70
2024/02/14 01:13:35;;;;;;;4.03;3.60;;;1.50;99.90;1.30;100919.00;;;;4931824;28;118006;-71
2024/02/14 01:16:00;;;;;;;4.30;3.50;;;1.60;99.90;1.30;100923.00;;;;4931314;28;110266;-71
2024/02/14 01:18:26;;;;;;;3.30;2.47;;;1.60;99.90;1.30;100920.00;;;;4929376;28;108308;-71
2024/02/14 01:20:53;;;;;;;4.13;3.60;;;1.60;99.90;1.40;100910.00;;;;4929729;28;117898;-72
2024/02/14 01:23:19;;;;;;;3.87;2.43;;;1.70;99.90;1.40;100917.00;;;;4925690;28;87875;-71
2024/02/14 01:25:45;;;;;;;4.53;3.03;;;1.60;99.90;1.40;100915.00;;;;4929849;28;88432;-71
2024/02/14 01:28:11;;;;;;;4.27;3.03;;;1.70;99.90;1.40;100917.00;;;;4928038;28;88098;-71
2024/02/14 01:30:37;;;;;;;5.80;2.70;;;1.80;99.90;1.50;100912.00;;;;4932685;28;87141;-71
2024/02/14 01:33:06;;;;;;;2.20;2.00;;;1.80;99.90;1.50;100910.00;;;;4933847;28;88424;-71
2024/02/14 01:35:31;;;;;;;3.83;2.90;;;1.80;99.90;1.50;100907.00;;;;4929449;28;87883;-71
2024/02/14 01:37:57;;;;;;;4.87;2.23;;;2.80;99.90;1.60;100899.00;;;;4926020;28;108357;-71
2024/02/14 01:40:23;;;;;;;6.63;4.07;;;2.90;99.90;1.60;100902.00;;;;4928294;28;88330;-71
2024/02/14 01:42:49;;;;;;;2.80;2.60;;;1.80;99.90;1.60;100885.00;;;;4924049;28;88228;-71
2024/02/14 01:45:15;;;;;;;3.80;2.30;;;2.00;99.90;1.60;100889.00;;;;4927524;28;110282;-71
2024/02/14 01:47:43;;;;;;;3.47;2.60;;;1.90;99.90;1.60;100883.00;;;;4929716;28;105311;-71
2024/02/14 01:50:11;;;;;;;3.63;2.53;;;1.80;99.90;1.60;100887.00;;;;4927252;28;118037;-71
2024/02/14 01:52:38;;;;;;;5.37;2.93;;;1.90;99.90;1.60;100886.00;;;;4926223;28;87937;-71
2024/02/14 01:55:06;;;;;;;2.73;2.03;;;2.00;99.90;1.70;100878.00;;;;4930507;28;87464;-71
2024/02/14 01:57:33;;;;;;;2.80;2.07;;;2.00;99.90;1.70;100877.00;;;;4911720;28;103322;-71
2024/02/14 02:00:07;;;;;;;2.87;2.33;;;1.90;99.90;1.70;100872.00;;;;4943564;28;88638;-71
2024/02/14 02:02:39;;;;;;;3.53;2.40;;;2.10;99.90;1.80;100871.00;;;;4926310;28;88858;-71
2024/02/14 02:05:06;;;;;;;4.80;2.20;;;2.00;99.90;1.80;100868.00;;;;4925765;28;87854;-71
2024/02/14 02:07:32;;;;;;;3.53;2.43;;;2.10;99.90;1.80;100873.00;;;;4926009;28;88036;-71
2024/02/14 02:09:58;;;;;;;4.37;2.83;;;2.20;99.90;1.80;100876.00;;;;4934570;28;105302;-71
2024/02/14 02:12:27;;;;;;;3.70;2.90;;;2.10;99.90;1.90;100870.00;;;;4928025;28;91133;-71
2024/02/14 02:14:53;;;;;;;3.90;2.73;;;2.20;99.90;1.90;100873.00;;;;4927749;28;87707;-71
2024/02/14 02:17:19;;;;;;;2.90;2.27;;;2.20;99.90;1.90;100867.00;;;;4928020;28;101560;-71
2024/02/14 02:19:44;;;;;;;3.97;2.80;;;2.90;99.90;2.00;100870.00;;;;4926899;28;116658;-70
2024/02/14 02:22:10;;;;;;;3.00;2.23;;;3.20;99.90;2.00;100877.00;;;;4928011;28;116207;-71
2024/02/14 02:24:36;;;;;;;2.33;1.43;;;3.20;99.90;2.10;100877.00;;;;4931704;28;110631;-71
2024/02/14 02:27:03;;;;;;;2.50;2.30;;;2.40;99.90;2.10;100881.00;;;;4929315;28;107681;-71
2024/02/14 02:29:29;;;;;;;4.10;2.33;;;2.40;99.90;2.10;100872.00;;;;4932293;28;88088;-71
2024/02/14 02:31:55;;;;;;;2.17;1.97;;;2.40;99.90;2.20;100861.00;;;;4924241;28;116749;-71
2024/02/14 02:34:20;;;;;;;6.13;1.93;;;2.40;99.90;2.20;100870.00;;;;4929387;28;87965;-71
2024/02/14 02:36:46;;;;;;;2.67;2.20;;;2.50;99.90;2.20;100871.00;;;;4929049;28;88056;-72
2024/02/14 02:39:14;;;;;;;2.27;1.60;;;2.50;99.90;2.30;100867.00;;;;4931056;28;115196;-71
2024/02/14 02:41:39;;;;;;;2.87;1.53;;;3.40;99.90;2.30;100873.00;;;;4929549;28;87855;-71
2024/02/14 02:44:06;;;;;;;3.83;2.00;;;2.50;99.90;2.40;100869.00;;;;4927137;28;110157;-71
2024/02/14 02:46:32;;;;;;;2.10;1.53;;;2.60;99.90;2.40;100857.00;;;;4945940;28;87991;-71
2024/02/14 02:48:58;;;;;;;2.23;1.73;;;3.50;99.90;2.50;100856.00;;;;4930689;28;89620;-71
2024/02/14 02:51:24;;;;;;;1.77;1.63;;;2.80;99.90;2.60;100860.00;;;;4928632;28;89079;-71
2024/02/14 02:53:51;;;;;;;2.10;1.40;;;2.80;99.90;2.60;100853.00;;;;4925420;28;88233;-71
2024/02/14 02:56:18;;;;;;;3.83;1.43;;;2.90;99.90;2.60;100863.00;;;;4927126;28;88019;-71
2024/02/14 02:58:44;;;;;;;2.27;1.77;;;2.90;99.90;2.70;100852.00;;;;4928005;28;87897;-71
2024/02/14 03:01:11;;;;;;;3.00;2.20;;;2.90;99.90;2.70;100855.00;;;;4928465;28;88577;-71
2024/02/14 03:03:38;;;;;;;1.33;1.23;;;3.00;99.90;2.70;100850.00;;;;4931611;28;89306;-71
2024/02/14 03:06:05;;;;;;;4.50;1.20;;;2.90;99.90;2.70;100855.00;;;;4928282;28;87800;-71
2024/02/14 03:08:34;;;;;;;3.13;1.37;;;3.00;99.90;2.70;100855.00;;;;4926219;28;87684;-71
2024/02/14 03:11:06;;;;;;;1.60;1.50;;;3.40;99.90;2.70;100855.00;;;;4925154;28;87718;-71
2024/02/14 03:13:35;;;;;;;1.60;1.30;;;3.00;99.90;2.60;100855.00;;;;4926494;28;89078;-71
2024/02/14 03:16:01;;;;;;;3.27;1.70;;;2.90;99.90;2.60;100851.00;;;;4926013;28;88921;-72
2024/02/14 03:18:27;;;;;;;1.67;1.37;;;2.90;99.90;2.60;100859.00;;;;4932864;28;89393;-71
2024/02/14 03:20:55;;;;;;;1.33;1.23;;;2.80;99.90;2.50;100846.00;;;;4932109;28;117630;-71
2024/02/14 03:23:22;;;;;;;2.23;1.67;;;2.70;99.90;2.50;100844.00;;;;4934757;28;88252;-71
2024/02/14 03:25:48;;;;;;;2.03;1.53;;;2.70;99.90;2.50;100847.00;;;;4932907;28;87910;-71
2024/02/14 03:28:14;;;;;;;2.17;1.47;;;2.90;99.90;2.40;100839.00;;;;4930834;28;87902;-71
2024/02/14 03:30:39;;;;;;;2.43;1.43;;;2.70;99.90;2.40;100845.00;;;;4927811;28;89164;-71
2024/02/14 03:33:07;;;;;;;2.37;2.13;;;2.70;99.90;2.40;100856.00;;;;4931270;28;109650;-71
2024/02/14 03:35:33;;;;;;;1.37;1.27;;;2.60;99.90;2.30;100844.00;;;;4939788;28;88088;-71
2024/02/14 03:38:01;;;;;;;3.17;1.60;;;2.60;99.90;2.30;100843.00;;;;4953463;28;88964;-70
2024/02/14 03:40:30;;;;;;;2.40;1.97;;;2.60;99.90;2.30;100843.00;;;;4936968;28;89372;-71
2024/02/14 03:42:56;;;;;;;1.57;1.47;;;2.50;99.90;2.20;100851.00;;;;4935564;28;88420;-71
2024/02/14 03:45:22;;;;;;;1.67;1.57;;;2.70;99.90;2.20;100864.00;;;;4933888;28;88203;-71
2024/02/14 03:47:48;;;;;;;2.27;1.60;;;2.50;99.90;2.10;100855.00;;;;4933419;28;87954;-71
2024/02/14 03:50:15;;;;;;;2.87;1.97;;;2.30;99.90;2.00;100853.00;;;;4929168;28;88533;-71
2024/02/14 03:52:42;;;;;;;2.40;1.60;;;2.30;99.90;2.00;100845.00;;;;4934346;28;87645;-71
2024/02/14 03:55:08;;;;;;;2.17;1.87;;;2.40;99.90;2.00;100837.00;;;;4935884;28;87644;-71
2024/02/14 03:57:38;;;;;;;2.70;1.47;;;2.30;99.90;2.10;100838.00;;;;4934781;28;88318;-71
2024/02/14 04:00:07;;;;;;;1.40;1.30;;;2.30;99.90;2.10;100844.00;;;;4930227;28;87957;-71
2024/02/14 04:02:33;;;;;;;2.03;1.80;;;2.40;99.90;2.10;100825.00;;;;4928863;28;87711;-71
2024/02/14 04:04:59;;;;;;;2.10;1.30;;;2.40;99.90;2.20;100831.00;;;;4923385;28;108496;-71
2024/02/14 04:07:24;;;;;;;2.43;1.30;;;2.40;99.90;2.20;100828.00;;;;4928587;28;118180;-71
2024/02/14 04:09:53;;;;;;;3.33;1.93;;;2.40;99.90;2.20;100819.00;;;;4928241;28;87876;-71
2024/02/14 04:12:19;;;;;;;3.03;1.50;;;2.50;99.90;2.20;100830.00;;;;4931253;28;110784;-71
2024/02/14 04:14:45;;;;;;;1.63;1.20;;;2.50;99.90;2.20;100820.00;;;;4933476;28;87741;-71
2024/02/14 04:17:12;;;;;;;1.60;1.33;;;2.40;99.90;2.20;100818.00;;;;4930941;28;117454;-71
2024/02/14 04:19:38;;;;;;;1.27;1.17;;;2.50;99.90;2.10;100818.00;;;;4927231;28;88721;-71
2024/02/14 04:22:04;;;;;;;1.57;1.40;;;2.40;99.90;2.10;100821.00;;;;4925456;28;110662;-71
2024/02/14 04:24:29;;;;;;;1.50;1.17;;;2.40;99.90;2.10;100820.00;;;;4935049;28;107557;-71
2024/02/14 04:26:56;;;;;;;2.30;1.70;;;2.40;99.90;2.10;100809.00;;;;4932565;28;89258;-71
2024/02/14 04:29:23;;;;;;;1.60;1.30;;;2.30;99.90;2.10;100811.00;;;;4927129;28;89093;-71
2024/02/14 04:31:49;;;;;;;1.47;1.03;;;2.40;99.90;2.10;100812.00;;;;4929899;28;87917;-71
2024/02/14 04:34:15;;;;;;;1.30;1.20;;;3.40;99.90;2.10;100803.00;;;;4935539;28;87959;-71
2024/02/14 04:36:41;;;;;;;1.27;1.10;;;2.40;99.90;2.10;100813.00;;;;4932205;28;88125;-71
2024/02/14 04:39:09;;;;;;;1.23;1.10;;;3.50;99.90;2.20;100803.00;;;;4930486;28;89505;-72
2024/02/14 04:41:37;;;;;;;2.30;1.43;;;2.50;99.90;2.20;100805.00;;;;4934504;28;87759;-71
2024/02/14 04:44:09;;;;;;;1.93;1.20;;;3.10;99.90;2.30;100808.00;;;;4932892;28;87743;-71
2024/02/14 04:46:35;;;;;;;3.20;1.77;;;2.60;99.90;2.30;100809.00;;;;4930185;28;87836;-71
2024/02/14 04:49:05;;;;;;;1.57;1.47;;;2.50;99.90;2.40;100800.00;;;;4930150;28;87833;-71
2024/02/14 04:51:31;;;;;;;4.70;1.83;;;2.60;99.90;2.50;100803.00;;;;4925198;28;87985;-71
2024/02/14 04:54:00;;;;;;;1.23;1.13;;;2.70;99.90;2.50;100811.00;;;;4933400;28;88675;-71
2024/02/14 04:56:29;;;;;;;3.00;2.03;;;2.80;99.90;2.60;100804.00;;;;4929607;28;89083;-71
2024/02/14 04:58:57;;;;;;;3.00;1.67;;;2.90;99.90;2.60;100803.00;;;;4931664;28;98082;-71
2024/02/14 05:01:23;;;;;;;3.77;1.43;;;2.90;99.90;2.70;100806.00;;;;4921247;28;90369;-71
2024/02/14 05:03:49;;;;;;;1.87;1.50;;;3.00;99.90;2.80;100806.00;;;;4931294;28;87812;-71
2024/02/14 05:06:15;;;;;;;0.97;0.90;;;3.00;99.90;2.80;100798.00;;;;4929417;28;88377;-71
2024/02/14 05:08:41;;;;;;;1.93;1.20;;;3.20;99.90;2.90;100798.00;;;;4929162;28;113001;-71
2024/02/14 05:11:06;;;;;;;2.23;1.57;;;3.20;99.90;2.90;100797.00;;;;4930638;28;87088;-72
2024/02/14 05:13:32;;;;;;;1.30;1.20;;;3.10;99.90;3.00;100797.00;;;;4929467;28;106630;-71
2024/02/14 05:15:58;;;;;;;1.03;0.93;;;4.20;99.90;3.00;100805.00;;;;4931054;28;117267;-71
2024/02/14 05:18:23;;;;;;;1.50;1.33;;;3.10;99.90;3.00;100799.00;;;;4925400;28;117874;-72
2024/02/14 05:20:49;;;;;;;1.73;1.63;;;3.40;99.90;3.10;100800.00;;;;4929789;28;112331;-72
2024/02/14 05:23:17;;;;;;;2.03;1.83;;;3.30;99.90;3.10;100808.00;;;;4928720;28;88787;-71
2024/02/14 05:25:43;;;;;;;2.97;1.40;;;3.30;99.90;3.20;100799.00;;;;4929647;28;88974;-71
2024/02/14 05:28:13;;;;;;;1.47;1.37;;;3.60;99.90;3.20;100797.00;;;;4926743;28;88798;-72
2024/02/14 05:30:40;;;;;;;1.77;1.47;;;3.40;99.90;3.30;100806.00;;;;4926985;28;87961;-71
2024/02/14 05:33:06;;;;;;;1.77;1.67;;;3.50;99.90;3.30;100794.00;;;;4923271;28;88291;-72
2024/02/14 05:35:31;;;;;;;2.53;1.50;;;3.60;99.90;3.30;100788.00;;;;4927493;28;117115;-71
2024/02/14 05:37:57;;;;;;;3.03;1.33;;;3.50;99.90;3.30;100781.00;;;;4923636;28;117487;-71
2024/02/14 05:40:24;;;;;;;2.30;1.50;;;3.50;99.90;3.30;100787.00;;;;4925837;28;110128;-71
2024/02/14 05:42:49;;;;;;;5.37;1.93;;;3.60;99.90;3.30;100773.00;;;;4927441;28;88914;-71
2024/02/14 05:45:15;;;;;;;1.60;1.30;;;3.50;99.90;3.20;100785.00;;;;4914556;28;111238;-72
2024/02/14 05:47:42;;;;;;;2.47;1.40;;;3.50;99.90;3.20;100773.00;;;;4924485;28;118260;-71
2024/02/14 05:50:08;;;;;;;0.93;0.90;;;3.50;99.90;3.20;100768.00;;;;4920808;28;87849;-71
2024/02/14 05:52:34;;;;;;;1.10;1.00;;;3.50;99.90;3.10;100779.00;;;;4928055;28;88358;-71
2024/02/14 05:55:00;;;;;;;1.70;1.60;;;4.40;99.90;3.10;100768.00;;;;4926242;28;91716;-72
2024/02/14 05:57:26;;;;;;;3.20;1.53;;;3.40;99.90;3.10;100768.00;;;;4927889;28;117287;-71
2024/02/14 05:59:52;;;;;;;1.40;1.30;;;3.30;99.90;3.00;100767.00;;;;4928297;28;87433;-72
2024/02/14 06:02:17;;;;;;;1.20;1.00;;;3.30;99.90;3.00;100756.00;;;;4931212;28;108734;-72
2024/02/14 06:04:43;;;;;;;1.37;1.27;;;3.90;99.90;3.00;100764.00;;;;4929811;28;97732;-71
2024/02/14 06:07:11;;;;;;;1.33;1.10;;;3.30;99.90;2.90;100774.00;;;;4920662;28;116264;-71
2024/02/14 06:09:37;;;;;;;1.93;1.20;;;3.10;99.90;2.90;100771.00;;;;4927455;28;87843;-71
2024/02/14 06:12:03;;;;;;;3.43;1.10;;;3.10;99.90;2.80;100770.00;;;;4923520;28;98263;-71
2024/02/14 06:14:30;;;;;;;2.47;1.77;;;3.10;99.90;2.80;100773.00;;;;4930349;28;101062;-72
2024/02/14 06:16:56;;;;;;;3.40;1.27;;;3.00;99.90;2.80;100783.00;;;;4931438;28;88322;-71
2024/02/14 06:19:22;;;;;;;1.63;1.23;;;3.00;99.90;2.80;100772.00;;;;4911356;28;87975;-72
2024/02/14 06:21:51;;;;;;;2.93;1.10;;;3.00;99.90;2.80;100772.00;;;;4925921;28;109521;-72
2024/02/14 06:24:18;;;;;;;3.63;1.33;;;3.00;99.90;2.80;100776.00;;;;4929894;28;117141;-72
2024/02/14 06:26:45;;;;;;;1.83;0.90;;;3.10;99.90;2.90;100778.00;;;;4931632;28;88266;-72
2024/02/14 06:29:11;;;;;;;0.90;0.90;;;3.10;99.90;2.90;100773.00;;;;4932279;28;92105;-72
2024/02/14 06:31:36;;;;;;;1.60;1.30;;;3.20;99.90;3.00;100790.00;;;;4932349;28;107423;-72
2024/02/14 06:34:02;;;;;;;2.00;1.60;;;2.70;99.90;3.10;100786.00;;;;4913640;28;108704;-72
2024/02/14 06:36:28;;;;;;;4.80;2.03;;;3.40;99.90;3.20;100787.00;;;;4935134;28;110655;-72
2024/02/14 06:38:54;;;;;;;3.10;1.77;;;3.30;99.90;3.20;100790.00;;;;4924869;28;110014;-71
2024/02/14 06:41:20;;;;;;;4.50;2.13;;;3.50;99.90;3.40;100804.00;;;;4926942;28;88121;-70
2024/02/14 06:43:46;;;;;;;3.63;2.87;;;3.50;99.90;3.50;100788.00;;;;4928751;28;88853;-72
2024/02/14 06:46:12;;;;;;;3.23;2.03;;;3.60;99.90;3.60;100788.00;;;;4927420;28;95684;-72
2024/02/14 06:48:38;;;;;;;2.13;1.27;;;3.70;99.90;3.70;100786.00;;;;4926170;28;110518;-73
2024/02/14 06:51:04;;;;;;;1.73;1.13;;;3.80;99.90;3.80;100786.00;;;;4929426;28;87622;-72
2024/02/14 06:53:30;;;;;;;3.13;2.27;;;4.00;99.90;3.90;100783.00;;;;4937390;28;103267;-71
2024/02/14 06:55:56;;;;;;;2.60;1.50;;;4.00;99.90;4.00;100787.00;;;;4932914;28;88979;-70
2024/02/14 06:58:21;;;;;;;2.53;1.83;;;4.20;99.90;4.10;100787.00;;;;4928704;28;109753;-70
2024/02/14 07:00:47;;;;;;;2.57;2.13;;;5.20;99.90;4.20;100795.00;;;;4929494;28;89496;-72
2024/02/14 07:03:13;;;;;;;11.13;6.03;;;4.30;99.90;4.30;100784.00;;;;4933119;28;113577;-71
2024/02/14 07:05:39;;;;;;;4.37;3.47;;;4.40;99.90;4.40;100780.00;;;;4931327;28;88340;-74
2024/02/14 07:08:05;;;;;;;2.60;2.33;;;4.50;99.90;4.50;100774.00;;;;4933533;28;90368;-72
2024/02/14 07:10:32;;;;;;;2.10;1.87;;;4.70;99.90;4.60;100783.00;;;;4932364;28;87847;-72
2024/02/14 07:12:57;;;;;;;5.53;3.73;;;5.20;99.90;4.70;100782.00;;;;4943059;28;89331;-72
2024/02/14 07:15:25;;;;;;;3.57;2.73;;;4.90;99.90;4.80;100773.00;;;;4931510;28;87891;-73
2024/02/14 07:17:51;;;;;;;3.13;2.63;;;6.00;99.90;4.90;100774.00;;;;4931520;28;87904;-69
2024/02/14 07:20:17;;;;;;;1.73;1.00;;;5.10;99.90;5.00;100773.00;;;;4926294;28;108335;-69
2024/02/14 07:22:45;;;;;;;2.17;1.97;;;5.20;99.90;5.10;100767.00;;;;4929355;28;88370;-70
2024/02/14 07:25:11;;;;;;;3.40;2.13;;;5.00;99.90;5.10;100767.00;;;;4934019;28;88886;-71
2024/02/14 07:27:37;;;;;;;0.70;0.70;;;5.30;99.90;5.20;100767.00;;;;4928502;28;109560;-69
2024/02/14 07:30:05;;;;;;;6.23;2.30;;;5.30;99.90;5.30;100770.00;;;;4929927;28;87824;-72
2024/02/14 07:32:31;;;;;;;1.37;0.90;;;5.40;99.90;5.40;100773.00;;;;4933546;28;88766;-69
2024/02/14 07:34:56;;;;;;;2.33;0.93;;;5.50;99.90;5.40;100769.00;;;;4932439;28;88449;-71
2024/02/14 07:37:22;;;;;;;3.77;2.03;;;6.50;99.90;5.50;100774.00;;;;4933570;28;87463;-70
2024/02/14 07:39:48;;;;;;;1.20;1.10;;;6.20;99.90;5.60;100766.00;;;;4929389;28;109111;-70
2024/02/14 07:42:13;;;;;;;4.00;2.53;;;5.70;99.90;5.60;100766.00;;;;4946622;28;87797;-72
2024/02/14 07:44:39;;;;;;;1.40;1.13;;;5.70;99.90;5.70;100765.00;;;;4927738;28;117408;-70
2024/02/14 07:47:05;;;;;;;2.30;1.40;;;5.80;99.90;5.80;100768.00;;;;4930913;28;110051;-69
2024/02/14 07:49:31;;;;;;;1.27;1.17;;;6.50;99.90;5.90;100767.00;;;;4933215;28;108776;-71
2024/02/14 07:51:56;;;;;;;2.83;2.20;;;6.70;99.90;5.90;100758.00;;;;4928914;28;116922;-71
2024/02/14 07:54:22;;;;;;;1.40;1.03;;;6.10;99.90;6.00;100753.00;;;;4930013;28;117151;-70
2024/02/14 07:56:47;;;;;;;1.47;1.10;;;6.20;99.90;6.10;100751.00;;;;4925750;28;110246;-70
2024/02/14 07:59:13;;;;;;;1.03;0.73;;;6.20;99.90;6.20;100747.00;;;;4931252;28;108789;-70
2024/02/14 08:01:39;;;;;;;2.50;1.13;;;7.10;99.90;6.30;100756.00;;;;4931277;28;116634;-72
2024/02/14 08:04:04;;;;;;;1.00;0.83;;;6.40;99.90;6.30;100749.00;;;;4932759;28;115492;-72
2024/02/14 08:06:30;;;;;;;1.80;0.90;;;6.50;99.90;6.40;100745.00;;;;4917793;28;88311;-70
2024/02/14 08:09:01;;;;;;;2.03;0.80;;;6.50;99.90;6.50;100738.00;;;;4935063;28;88816;-72
2024/02/14 08:11:27;;;;;;;0.67;0.67;;;6.60;99.90;6.60;100740.00;;;;4933231;28;88118;-72
2024/02/14 08:13:53;;;;;;;1.70;1.17;;;6.70;99.90;6.70;100748.00;;;;4929899;28;116678;-72
2024/02/14 08:16:18;;;;;;;0.80;0.80;;;6.90;99.90;6.80;100753.00;;;;4928420;28;109843;-70
2024/02/14 08:18:45;;;;;;;0.90;0.60;;;7.20;99.90;6.80;100754.00;;;;4932743;28;109361;-72
2024/02/14 08:21:12;;;;;;;2.03;0.57;;;7.00;99.90;6.90;100755.00;;;;4932452;28;88206;-74
2024/02/14 08:23:39;;;;;;;2.07;1.13;;;7.10;99.90;7.00;100751.00;;;;4929042;28;88315;-70
2024/02/14 08:26:10;;;;;;;1.33;0.70;;;7.00;99.90;7.00;100750.00;;;;4930681;28;87268;-70
2024/02/14 08:28:38;;;;;;;1.80;1.33;;;7.30;99.90;7.00;100749.00;;;;4929223;28;88060;-69
2024/02/14 08:31:13;;;;;;;2.43;1.57;;;7.20;99.90;7.10;100753.00;;;;4929348;28;88861;-72
2024/02/14 08:33:38;;;;;;;0.80;0.80;;;7.20;99.90;7.10;100755.00;;;;4930988;28;96618;-71
2024/02/14 08:36:06;;;;;;;1.33;1.03;;;7.10;99.90;7.20;100755.00;;;;4930375;28;88899;-72
2024/02/14 08:38:32;;;;;;;0.83;0.80;;;7.30;99.90;7.20;100755.00;;;;4931713;28;87623;-72
2024/02/14 08:40:57;;;;;;;2.23;1.20;;;8.00;99.90;7.30;100746.00;;;;4929608;28;88794;-72
2024/02/14 08:43:25;;;;;;;0.60;0.60;;;7.40;99.90;7.30;100752.00;;;;4930639;28;116673;-72
2024/02/14 08:45:51;;;;;;;2.50;1.10;;;7.70;99.90;7.40;100735.00;;;;4928251;28;87909;-71
2024/02/14 08:48:17;;;;;;;0.93;0.77;;;7.50;99.90;7.40;100755.00;;;;4930512;28;87953;-69
2024/02/14 08:50:43;;;;;;;0.83;0.73;;;7.60;99.90;7.50;100740.00;;;;4933164;28;109735;-74
2024/02/14 08:53:09;;;;;;;1.70;1.20;;;7.60;99.90;7.50;100751.00;;;;4929570;28;87715;-72
2024/02/14 08:55:36;;;;;;;1.27;0.90;;;7.60;99.90;7.50;100747.00;;;;4932153;28;89252;-70
2024/02/14 08:58:02;;;;;;;0.87;0.87;;;7.60;99.90;7.50;100743.00;;;;4934213;28;88930;-71
2024/02/14 09:00:27;;;;;;;2.20;1.00;;;7.60;99.90;7.50;100737.00;;;;4930422;28;117181;-71
2024/02/14 09:02:53;;;;;;;2.77;1.73;;;7.70;99.90;7.40;100725.00;;;;4931392;28;90302;-72
2024/02/14 09:05:19;;;;;;;1.17;0.70;;;7.60;99.90;7.40;100744.00;;;;4930483;28;87985;-71
2024/02/14 09:07:45;;;;;;;1.13;0.83;;;7.60;99.90;7.40;100741.00;;;;4937840;28;88375;-70
2024/02/14 09:10:12;;;;;;;0.50;0.40;;;7.50;99.90;7.40;100745.00;;;;4929653;28;88960;-70
2024/02/14 09:12:41;;;;;;;0.60;0.60;;;7.60;99.90;7.40;100731.00;;;;4934099;28;88799;-70
2024/02/14 09:15:07;;;;;;;1.00;0.70;;;7.60;99.90;7.50;100731.00;;;;4914442;28;89215;-71
2024/02/14 09:17:33;;;;;;;1.00;0.77;;;6.90;99.90;7.50;100743.00;;;;4929914;28;87968;-72
2024/02/14 09:19:59;;;;;;;4.27;1.30;;;7.60;99.90;7.60;100754.00;;;;4932505;28;117918;-74
2024/02/14 09:22:24;;;;;;;0.70;0.60;;;7.70;99.90;7.70;100745.00;;;;4929514;28;108138;-71
2024/02/14 09:24:51;;;;;;;0.37;0.37;;;7.80;99.90;7.70;100742.00;;;;4925125;28;110209;-69
2024/02/14 09:27:16;;;;;;;0.70;0.63;;;7.90;99.90;7.80;100735.00;;;;4927755;28;109243;-70
2024/02/14 09:29:42;;;;;;;2.53;1.00;;;7.90;99.90;7.90;100752.00;;;;4928164;28;116621;-72
2024/02/14 09:32:08;;;;;;;2.30;0.93;;;7.90;99.90;7.90;100748.00;;;;4927837;28;117298;-70
2024/02/14 09:34:34;;;;;;;1.23;0.97;;;8.00;99.90;7.90;100745.00;;;;4929399;28;87582;-69
2024/02/14 09:37:00;;;;;;;0.50;0.50;;;8.10;99.90;8.00;100740.00;;;;4936029;28;107892;-69
2024/02/14 09:39:26;;;;;;;3.40;2.30;;;8.10;99.90;8.00;100743.00;;;;4927197;28;116065;-69
2024/02/14 09:41:55;;;;;;;12.87;7.17;;;8.20;99.90;8.00;100743.00;;;;4935902;28;87975;-70
2024/02/14 09:44:21;;;;;;;1.33;1.20;;;8.20;99.90;8.10;100747.00;;;;4933174;28;87773;-70
2024/02/14 09:46:48;;;;;;;1.67;0.50;;;8.20;99.90;8.10;100738.00;;;;4928935;28;89085;-72
2024/02/14 09:49:16;;;;;;;1.00;0.37;;;8.30;99.90;8.10;100745.00;;;;4929815;28;88526;-72
2024/02/14 09:51:44;;;;;;;1.80;0.80;;;8.40;99.90;8.10;100746.00;;;;4924837;28;108767;-70
2024/02/14 09:54:11;;;;;;;1.00;0.90;;;8.30;99.90;8.20;100742.00;;;;4938811;28;110619;-69
2024/02/14 09:56:37;;;;;;;4.93;0.90;;;8.30;99.90;8.20;100729.00;;;;4927373;28;98904;-70
2024/02/14 09:59:02;;;;;;;1.03;0.83;;;8.30;99.90;8.20;100733.00;;;;4929037;28;93429;-72
2024/02/14 10:01:28;;;;;;;1.20;0.83;;;8.40;99.90;8.20;100743.00;;;;4928486;28;88250;-69
2024/02/14 10:03:55;;;;;;;0.63;0.63;;;8.30;99.90;8.30;100746.00;;;;4930451;28;87095;-69
2024/02/14 10:06:21;;;;;;;1.60;0.87;;;8.40;99.90;8.30;100755.00;;;;4931552;28;88245;-72
2024/02/14 10:08:51;;;;;;;1.80;0.93;;;8.40;99.90;8.30;100747.00;;;;4928650;28;88953;-72
2024/02/14 10:11:21;;;;;;;1.40;1.00;;;8.40;99.90;8.30;100756.00;;;;4934564;28;88773;-70
2024/02/14 10:13:54;;;;;;;5.20;0.97;;;8.40;99.90;8.30;100755.00;;;;4937396;28;87829;-70
2024/02/14 10:16:19;;;;;;;0.90;0.60;;;8.40;99.90;8.20;100748.00;;;;4927182;28;89260;-70
2024/02/14 10:18:46;;;;;;;1.70;0.73;;;8.30;99.90;8.20;100754.00;;;;4930227;28;89055;-71
2024/02/14 10:21:18;;;;;;;3.40;1.17;;;8.30;99.90;8.20;100756.00;;;;4926938;28;88884;-72
2024/02/14 10:23:46;;;;;;;2.13;1.47;;;8.30;99.90;8.20;100759.00;;;;4930454;28;88050;-70
2024/02/14 10:26:13;;;;;;;3.87;2.17;;;8.40;99.90;8.30;100762.00;;;;4927427;28;87938;-72
2024/02/14 10:28:43;;;;;;;8.87;4.67;;;8.40;99.90;8.30;100754.00;;;;4929458;28;87738;-72
2024/02/14 10:31:11;;;;;;;2.73;2.03;;;8.50;99.90;8.40;100760.00;;;;4933249;28;87863;-71
2024/02/14 10:33:36;;;;;;;5.33;2.83;;;8.50;99.90;8.40;100760.00;;;;4933173;28;89227;-72
2024/02/14 10:36:03;;;;;;;4.93;1.33;;;8.50;99.90;8.40;100751.00;;;;4933292;28;89013;-71
2024/02/14 10:38:35;;;;;;;2.00;1.03;;;8.60;99.90;8.40;100755.00;;;;4937049;28;88090;-71
2024/02/14 10:41:02;;;;;;;1.17;1.07;;;8.50;99.90;8.40;100743.00;;;;4934242;28;88107;-71
2024/02/14 10:43:29;;;;;;;3.77;2.27;;;8.50;99.90;8.40;100745.00;;;;4932809;28;87687;-70
2024/02/14 10:45:58;;;;;;;4.60;2.43;;;8.50;99.90;8.40;100751.00;;;;4930909;28;87812;-70
2024/02/14 10:48:25;;;;;;;5.70;2.50;;;8.50;99.90;8.40;100737.00;;;;4917353;28;90098;-70
2024/02/14 10:50:54;;;;;;;3.83;1.90;;;8.40;99.90;8.40;100743.00;;;;4932627;28;88681;-70
2024/02/14 10:53:22;;;;;;;2.27;1.70;;;8.50;99.90;8.40;100741.00;;;;4930176;28;87232;-71
2024/02/14 10:55:53;;;;;;;4.00;1.50;;;8.60;99.90;8.50;100745.00;;;;4917362;28;88019;-71